Time;durP1;ratioP1;P1;durP2;ratioP2;P2;SDS_P1;SDS_P2;PMS_P1;PMS_P2;Temp;Humidity;BMP_temperature;BMP_pressure;BME280_temperature;BME280_humidity;BME280_pressure;Samples;Min_cycle;Max_cycle;Signal;HPM_P1;HPM_P2
2022/11/02 00:02:07;;;;;;;8.52;2.30;;;;;;;7.47;84.88;101067.81;6301481;22;20085;-81
2022/11/02 00:05:12;;;;;;;11.73;3.13;;;;;;;7.55;84.86;101063.22;6302794;22;20112;-81
2022/11/02 00:08:16;;;;;;;7.93;1.83;;;;;;;7.26;85.74;101060.66;6302513;22;20022;-80
2022/11/02 00:11:19;;;;;;;13.02;2.03;;;;;;;7.29;85.73;101061.41;6283521;22;20034;-80
2022/11/02 00:14:23;;;;;;;12.75;3.60;;;;;;;7.40;85.84;101061.06;6301403;22;20445;-80
2022/11/02 00:17:28;;;;;;;12.65;2.58;;;;;;;7.38;85.61;101055.94;6300523;22;20354;-80
2022/11/02 00:20:31;;;;;;;8.23;2.38;;;;;;;7.33;85.45;101062.16;6301545;22;20030;-80
2022/11/02 00:23:34;;;;;;;;;;;;;;;7.44;85.27;101052.31;6302525;22;20080;-80
2022/11/02 00:26:38;;;;;;;14.93;2.00;;;;;;;7.32;85.99;101058.72;6302307;22;19913;-81
2022/11/02 00:29:41;;;;;;;;;;;;;;;7.42;85.03;101056.69;6302815;22;20054;-80
2022/11/02 00:32:45;;;;;;;11.75;1.77;;;;;;;7.44;85.16;101050.53;6301398;22;19913;-80
2022/11/02 00:35:48;;;;;;;;;;;;;;;7.14;86.21;101044.50;6301793;22;20061;-80
2022/11/02 00:38:53;;;;;;;8.55;2.05;;;;;;;7.28;85.85;101044.13;6282452;22;19913;-80
2022/11/02 00:41:56;;;;;;;;;;;;;;;7.38;85.43;101052.50;6301978;22;20038;-80
2022/11/02 00:45:00;;;;;;;16.48;2.20;;;;;;;7.44;84.78;101045.34;6300755;22;20033;-80
2022/11/02 00:48:04;;;;;;;12.38;2.50;;;;;;;7.29;85.97;101052.75;6302172;22;20069;-80
2022/11/02 00:51:08;;;;;;;12.15;2.55;;;;;;;7.18;86.26;101053.09;6301248;22;20026;-80
2022/11/02 00:54:11;;;;;;;10.75;2.45;;;;;;;7.28;85.60;101049.31;6297835;22;20029;-80
2022/11/02 00:57:14;;;;;;;6.75;2.40;;;;;;;7.13;85.78;101053.22;6278910;22;20053;-80
2022/11/02 01:00:19;;;;;;;11.65;2.63;;;;;;;7.29;86.25;101057.97;6281019;22;20572;-80
2022/11/02 01:03:23;;;;;;;14.13;2.47;;;;;;;7.35;85.76;101052.59;6283059;22;20023;-80
2022/11/02 01:06:27;;;;;;;11.95;2.80;;;;;;;7.16;86.17;101054.88;6301934;22;20391;-80
2022/11/02 01:09:30;;;;;;;11.32;2.72;;;;;;;7.32;85.42;101050.06;6301358;22;20084;-80
2022/11/02 01:12:35;;;;;;;;;;;;;;;7.13;86.63;101050.63;6282745;22;20072;-80
2022/11/02 01:15:38;;;;;;;10.90;2.38;;;;;;;7.07;86.74;101050.78;6281576;22;19921;-81
2022/11/02 01:18:42;;;;;;;;;;;;;;;7.18;85.86;101048.75;6282536;22;20026;-81
2022/11/02 01:21:46;;;;;;;10.35;3.53;;;;;;;7.26;85.88;101045.91;6301581;22;19914;-80
2022/11/02 01:24:49;;;;;;;;;;;;;;;7.23;85.70;101038.19;6283401;22;20037;-80
2022/11/02 01:27:52;;;;;;;11.43;2.60;;;;;;;7.40;85.34;101032.47;6281871;22;19952;-80
2022/11/02 01:30:57;;;;;;;;;;;;;;;7.40;84.26;101033.34;6301437;22;20084;-80
2022/11/02 01:34:01;;;;;;;7.75;2.10;;;;;;;7.32;84.60;101031.84;6300554;22;19921;-80
2022/11/02 01:37:04;;;;;;;12.18;2.38;;;;;;;7.29;84.73;101022.41;6264003;22;20465;-80
2022/11/02 01:40:07;;;;;;;;;;;;;;;7.21;85.43;101025.25;6283014;22;20406;-80
2022/11/02 01:43:40;;;;;;;6.38;1.83;;;;;;;7.23;84.92;101020.81;6300970;22;19914;-80
2022/11/02 01:46:46;;;;;;;9.85;1.80;;;;;;;7.15;84.85;101020.22;6281897;22;20102;-80
2022/11/02 01:50:00;;;;;;;9.45;2.00;;;;;;;7.08;85.60;101018.69;6282293;22;20030;-80
2022/11/02 01:53:03;;;;;;;9.77;2.20;;;;;;;7.12;85.54;101007.31;6301506;22;20318;-81
2022/11/02 01:56:11;;;;;;;11.40;1.90;;;;;;;7.19;85.77;101001.03;6299992;22;20107;-80
2022/11/02 01:59:25;;;;;;;12.35;2.35;;;;;;;7.07;85.95;100998.78;6300742;22;20456;-80
2022/11/02 02:02:29;;;;;;;14.85;3.70;;;;;;;7.36;84.52;100991.84;6282638;22;20026;-81
2022/11/02 02:05:35;;;;;;;14.98;2.28;;;;;;;7.20;85.12;100992.31;6282106;22;20053;-82
2022/11/02 02:08:49;;;;;;;6.68;1.60;;;;;;;7.36;85.00;100994.44;6283835;22;20400;-82
2022/11/02 02:11:53;;;;;;;7.65;1.95;;;;;;;7.40;84.94;100988.22;6302627;22;20365;-82
2022/11/02 02:14:58;;;;;;;8.48;2.67;;;;;;;7.33;85.38;100994.53;6302922;22;20084;-82
2022/11/02 02:18:16;;;;;;;13.07;2.42;;;;;;;7.37;85.23;101006.53;6284682;22;20114;-82
2022/11/02 02:21:52;;;;;;;8.63;3.58;;;;;;;7.51;84.72;101006.97;6303257;22;20326;-81
2022/11/02 02:25:47;;;;;;;11.45;2.28;;;;;;;7.31;86.03;101009.34;6302323;22;20104;-81
2022/11/02 02:29:23;;;;;;;5.40;1.73;;;;;;;7.49;85.96;100998.34;6197903;22;20073;-82
2022/11/02 02:32:29;;;;;;;9.40;2.55;;;;;;;7.48;86.35;100991.44;6303332;22;20164;-82
2022/11/02 02:36:01;;;;;;;7.97;1.98;;;;;;;7.29;87.60;101003.34;6302646;22;20030;-81
2022/11/02 02:39:12;;;;;;;9.73;2.13;;;;;;;7.52;86.44;101008.66;6299325;22;20076;-81
2022/11/02 02:42:23;;;;;;;5.90;1.88;;;;;;;7.59;86.55;100997.16;6277126;22;20030;-81
2022/11/02 02:45:52;;;;;;;9.73;1.80;;;;;;;7.76;86.27;101003.59;6284064;22;20030;-81
2022/11/02 02:48:58;;;;;;;9.20;1.98;;;;;;;7.71;86.13;100989.84;6283145;22;20495;-82
2022/11/02 02:52:03;;;;;;;7.40;1.90;;;;;;;7.81;85.97;100991.25;6283477;22;20402;-82
2022/11/02 02:55:09;;;;;;;8.45;2.50;;;;;;;7.67;86.89;101004.72;6283095;22;20026;-82
2022/11/02 02:58:19;;;;;;;6.68;2.15;;;;;;;7.54;88.57;101011.22;6303406;22;20033;-82
2022/11/02 03:01:23;;;;;;;8.43;1.52;;;;;;;7.80;86.90;101005.19;6291796;22;20034;-82
2022/11/02 03:04:29;;;;;;;8.65;2.40;;;;;;;7.76;87.12;101001.81;6284621;22;20038;-82
2022/11/02 03:07:33;;;;;;;10.32;2.15;;;;;;;7.76;87.79;100988.81;6302586;22;20464;-81
2022/11/02 03:10:52;;;;;;;8.43;1.77;;;;;;;7.70;88.62;100999.41;6283990;22;20026;-81
2022/11/02 03:14:06;;;;;;;8.07;1.65;;;;;;;7.84;88.38;100996.34;6266640;22;20026;-80
2022/11/02 03:17:35;;;;;;;8.55;2.13;;;;;;;7.83;88.41;101005.06;6283165;22;20469;-80
2022/11/02 03:20:56;;;;;;;10.63;2.10;;;;;;;8.10;87.35;100998.06;6284164;22;20101;-80
2022/11/02 03:24:14;;;;;;;7.63;2.08;;;;;;;8.06;87.83;100997.31;6282682;22;20073;-80
2022/11/02 03:27:21;;;;;;;8.65;1.38;;;;;;;8.13;87.68;101008.38;6282918;22;20023;-80
2022/11/02 03:30:28;;;;;;;7.68;2.17;;;;;;;7.97;88.47;101008.06;6282919;22;20042;-80
2022/11/02 03:33:42;;;;;;;6.22;1.50;;;;;;;8.21;87.63;100995.97;6301972;22;20057;-80
2022/11/02 03:37:17;;;;;;;9.23;1.80;;;;;;;8.18;88.27;101016.06;6300999;22;20458;-80
2022/11/02 03:40:42;;;;;;;6.68;1.90;;;;;;;8.20;87.82;101022.91;6283027;22;20433;-80
2022/11/02 03:43:49;;;;;;;9.20;2.45;;;;;;;8.23;88.60;101025.41;6283985;22;20558;-80
2022/11/02 03:47:00;;;;;;;11.75;2.00;;;;;;;8.14;88.96;101026.56;6284038;22;20065;-80
2022/11/02 03:50:08;;;;;;;5.88;1.40;;;;;;;8.15;89.81;101030.03;6283933;22;20045;-80
2022/11/02 03:53:19;;;;;;;6.88;1.83;;;;;;;8.34;88.76;101027.63;6283921;22;20022;-80
2022/11/02 03:56:29;;;;;;;9.65;1.88;;;;;;;8.28;89.54;101040.88;6302631;22;20069;-80
2022/11/02 03:59:32;;;;;;;6.45;1.73;;;;;;;8.26;89.94;101040.91;6283987;22;20045;-80
2022/11/02 04:02:39;;;;;;;6.00;1.77;;;;;;;8.30;90.01;101046.91;6321396;22;20074;-80
2022/11/02 04:05:43;;;;;;;6.70;1.42;;;;;;;8.26;90.53;101053.09;6290321;22;20046;-80
2022/11/02 04:08:55;;;;;;;13.95;2.40;;;;;;;8.30;90.55;101054.72;6283709;22;20077;-82
2022/11/02 04:15:21;;;;;;;6.63;1.90;;;;;;;8.40;90.69;101043.09;6283415;22;20507;-82
2022/11/02 04:25:19;;;;;;;12.35;2.70;;;;;;;8.49;90.57;101068.84;6283935;22;20102;-81
2022/11/02 04:28:35;;;;;;;12.27;2.45;;;;;;;8.70;90.15;101063.75;6302310;22;20023;-81
2022/11/02 04:31:41;;;;;;;5.90;1.50;;;;;;;8.65;90.36;101058.72;6282333;22;20026;-81
2022/11/02 04:34:45;;;;;;;7.57;1.98;;;;;;;8.69;90.89;101059.47;6282422;22;20026;-81
2022/11/02 04:44:44;;;;;;;7.60;2.10;;;;;;;8.81;90.66;101079.88;6276500;22;20030;-80
2022/11/02 04:48:03;;;;;;;;;;;;;;;8.94;90.03;101075.91;6282866;22;20017;-81
2022/11/02 04:51:08;;;;;;;11.27;1.90;;;;;;;8.85;90.22;101076.25;6283415;22;19961;-80
2022/11/02 04:54:12;;;;;;;6.68;2.15;;;;;;;8.81;90.67;101074.66;6282548;22;20026;-81
2022/11/02 04:57:17;;;;;;;13.75;4.70;;;;;;;8.87;90.42;101066.63;6284617;22;20093;-81
2022/11/02 05:00:22;;;;;;;13.98;3.42;;;;;;;8.58;91.03;101068.53;6285591;22;20085;-80
2022/11/02 05:03:27;;;;;;;11.43;4.47;;;;;;;8.54;92.07;101077.34;6285798;22;20507;-81
2022/11/02 05:06:31;;;;;;;13.00;4.80;;;;;;;8.60;91.03;101079.72;6282032;22;20069;-81
2022/11/02 05:09:37;;;;;;;;;;;;;;;8.51;90.45;101085.25;6283115;22;20049;-86
2022/11/02 05:12:42;;;;;;;9.75;4.30;;;;;;;8.61;90.40;101083.19;6281634;22;19944;-81
2022/11/02 05:15:45;;;;;;;16.58;4.82;;;;;;;8.57;90.29;101089.41;6300655;22;20026;-82
2022/11/02 05:18:49;;;;;;;13.73;5.57;;;;;;;8.60;90.50;101092.75;6282371;22;20022;-82
2022/11/02 05:21:54;;;;;;;14.00;4.65;;;;;;;8.63;90.30;101096.19;6282810;22;20022;-82
2022/11/02 05:25:00;;;;;;;7.10;3.28;;;;;;;8.48;91.19;101092.34;6283251;22;20065;-83
2022/11/02 05:28:04;;;;;;;11.43;3.53;;;;;;;8.69;90.79;101093.34;6282210;22;20069;-81
2022/11/02 05:31:07;;;;;;;8.05;3.42;;;;;;;8.64;90.82;101103.06;6281994;22;20088;-82
2022/11/02 05:34:17;;;;;;;13.65;4.25;;;;;;;8.60;90.96;101102.34;6302163;22;20019;-82
2022/11/02 05:37:20;;;;;;;8.80;3.53;;;;;;;8.54;91.81;101106.00;6279947;22;20022;-82
2022/11/02 05:40:24;;;;;;;10.63;4.47;;;;;;;8.57;91.30;101112.88;6299358;22;20022;-82
2022/11/02 05:43:27;;;;;;;14.32;8.13;;;;;;;8.53;91.44;101117.34;6281469;22;20022;-81
2022/11/02 05:49:18;;;;;;;13.48;5.22;;;;;;;8.45;92.37;101121.09;6295384;22;20359;-80
2022/11/02 05:52:23;;;;;;;;;;;;;;;8.31;92.62;101126.75;6300441;22;20038;-82
2022/11/02 05:55:47;;;;;;;;;;;;;;;;;;;;;
2022/11/02 05:59:33;;;;;;;11.43;5.43;;;;;;;8.26;92.85;101133.84;6263129;22;20169;-86
2022/11/02 06:02:37;;;;;;;9.63;4.82;;;;;;;8.34;93.82;101142.28;6274615;22;20479;-81
2022/11/02 06:05:43;;;;;;;12.20;4.18;;;;;;;8.27;93.21;101146.00;6300692;22;20443;-85
2022/11/02 06:09:11;;;;;;;13.32;6.40;;;;;;;8.35;92.79;101157.00;6300083;22;20023;-85
2022/11/02 06:24:13;;;;;;;37.13;28.65;;;;;;;8.02;94.12;101175.44;6194526;22;1404381;-87
2022/11/02 06:27:17;;;;;;;24.88;18.55;;;;;;;8.12;94.03;101181.22;6249617;23;20451;-85
2022/11/02 06:30:23;;;;;;;19.52;9.85;;;;;;;8.19;93.27;101181.88;6247402;23;20405;-82
2022/11/02 06:33:28;;;;;;;8.50;5.13;;;;;;;8.10;93.17;101175.19;6248130;23;20081;-87
2022/11/02 06:36:31;;;;;;;13.23;4.32;;;;;;;8.05;93.24;101177.09;6248672;23;20056;-86
2022/11/02 06:39:35;;;;;;;10.63;2.83;;;;;;;8.21;93.04;101182.69;6247962;23;20444;-87
2022/11/02 06:42:39;;;;;;;;;;;;;;;8.34;92.23;101186.59;6249332;23;20095;-86
2022/11/02 06:45:45;;;;;;;;;;;;;;;8.38;91.76;101188.22;6249849;23;19914;-88
2022/11/02 06:48:54;;;;;;;7.45;2.30;;;;;;;8.43;91.74;101198.50;6250002;23;19961;-88
2022/11/02 06:51:58;;;;;;;9.98;2.50;;;;;;;8.18;93.08;101191.44;6248776;23;20122;-87
2022/11/02 06:55:02;;;;;;;5.57;2.40;;;;;;;8.40;92.27;101193.41;6248502;23;20360;-88
2022/11/02 06:58:30;;;;;;;;;;;;;;;8.20;92.73;101202.66;6248022;23;20026;-91
2022/11/02 07:01:34;;;;;;;8.82;1.80;;;;;;;8.20;93.00;101207.00;6248577;23;19918;-84
2022/11/02 07:04:37;;;;;;;;;;;;;;;8.32;92.49;101211.84;6249358;23;20054;-88
2022/11/02 07:07:41;;;;;;;15.40;3.40;;;;;;;7.97;94.66;101210.31;6247590;23;19915;-75
2022/11/02 07:10:46;;;;;;;10.77;2.30;;;;;;;7.82;95.68;101230.72;6247232;23;20253;-73
2022/11/02 07:13:49;;;;;;;8.07;2.20;;;;;;;7.99;96.24;101234.56;6247277;23;20773;-74
2022/11/02 07:16:52;;;;;;;16.55;3.00;;;;;;;8.35;94.32;101237.78;6247111;23;20038;-76
2022/11/02 07:19:56;;;;;;;9.43;2.42;;;;;;;8.33;92.82;101245.66;6247534;23;20092;-76
2022/11/02 07:23:00;;;;;;;;;;;;;;;8.47;92.55;101247.00;6247264;23;20023;-76
2022/11/02 07:26:04;;;;;;;;;;;;;;;8.54;92.16;101251.97;6243374;23;20304;-77
2022/11/02 07:29:10;;;;;;;27.80;15.90;;;;;;;8.65;91.90;101261.19;6241593;23;19934;-78
2022/11/02 07:32:16;;;;;;;12.27;5.20;;;;;;;8.70;92.12;101260.16;6240948;23;20082;-77
2022/11/02 07:35:20;;;;;;;8.00;2.40;;;;;;;8.73;92.33;101261.81;6241366;23;20050;-79
2022/11/02 07:38:23;;;;;;;7.95;2.33;;;;;;;8.63;92.90;101263.00;6241107;23;20361;-77
2022/11/02 07:41:27;;;;;;;6.30;2.22;;;;;;;8.48;93.75;101267.81;6239296;23;20107;-76
2022/11/02 07:44:30;;;;;;;7.13;2.35;;;;;;;8.61;94.28;101270.88;6240564;23;20023;-75
2022/11/02 07:47:40;;;;;;;15.38;9.18;;;;;;;8.78;93.27;101278.16;6241101;23;20031;-78
2022/11/02 07:50:44;;;;;;;9.23;3.30;;;;;;;8.95;92.63;101278.44;6240403;23;20050;-78
2022/11/02 07:53:48;;;;;;;19.90;13.40;;;;;;;9.02;92.13;101282.53;6241191;23;20134;-78
2022/11/02 07:56:51;;;;;;;12.93;4.55;;;;;;;8.98;92.91;101286.16;6239579;23;20357;-79
2022/11/02 07:59:54;;;;;;;;;;;;;;;9.06;92.59;101288.50;6240502;23;20023;-78
2022/11/02 08:02:59;;;;;;;15.50;4.30;;;;;;;9.07;92.61;101288.47;6237601;23;19930;-78
2022/11/02 08:06:03;;;;;;;8.32;3.10;;;;;;;9.22;91.82;101294.94;6239675;23;20352;-79
2022/11/02 08:09:06;;;;;;;15.27;3.30;;;;;;;9.55;89.91;101284.22;6239314;23;20039;-78
2022/11/02 08:12:09;;;;;;;;;;;;;;;9.91;86.83;101289.84;6238401;23;20114;-78
2022/11/02 08:15:12;;;;;;;14.85;3.30;;;;;;;10.14;85.46;101290.72;6238484;23;19918;-78
2022/11/02 08:18:24;;;;;;;14.55;2.90;;;;;;;10.02;89.00;101292.91;6238799;23;20046;-78
2022/11/02 08:21:27;;;;;;;12.70;3.28;;;;;;;10.08;88.93;101296.19;6239461;23;20039;-77
2022/11/02 08:24:31;;;;;;;15.40;6.45;;;;;;;9.94;89.68;101292.34;6209016;23;20051;-77
2022/11/02 08:27:34;;;;;;;;;;;;;;;10.30;85.58;101299.72;6210384;23;20075;-77
2022/11/02 08:30:37;;;;;;;12.65;3.13;;;;;;;10.51;84.51;101281.50;6210584;23;20276;-77
2022/11/02 08:33:41;;;;;;;;;;;;;;;10.74;80.57;101286.66;6210471;23;20354;-77
2022/11/02 08:36:45;;;;;;;12.75;2.92;;;;;;;10.84;80.67;101287.97;6209776;23;20037;-77
2022/11/02 08:39:48;;;;;;;14.02;2.30;;;;;;;10.94;79.26;101291.94;6209382;23;20059;-77
2022/11/02 08:43:00;;;;;;;12.48;2.75;;;;;;;10.92;79.67;101300.75;6209492;23;20131;-77
2022/11/02 08:46:04;;;;;;;11.57;2.90;;;;;;;11.01;78.84;101304.72;6209342;23;20035;-77
2022/11/02 08:49:07;;;;;;;12.80;2.90;;;;;;;11.16;76.40;101304.09;6210227;23;20481;-77
2022/11/02 08:52:10;;;;;;;;;;;;;;;11.34;75.79;101303.31;6211217;23;20027;-77
2022/11/02 08:55:14;;;;;;;10.85;2.75;;;;;;;11.34;76.21;101299.84;6210278;23;19915;-77
2022/11/02 08:58:17;;;;;;;;;;;;;;;11.47;75.08;101308.03;6208458;23;20031;-77
2022/11/02 09:01:20;;;;;;;11.23;2.45;;;;;;;11.62;74.09;101313.44;6206803;23;20305;-77
2022/11/02 09:04:24;;;;;;;8.43;1.92;;;;;;;11.78;72.88;101324.09;6207751;23;20082;-77
2022/11/02 09:07:27;;;;;;;9.93;2.33;;;;;;;11.92;71.05;101330.53;6209086;23;20028;-78
2022/11/02 09:10:33;;;;;;;10.27;2.22;;;;;;;11.96;70.67;101317.19;6209555;23;20024;-77
2022/11/02 09:13:37;;;;;;;11.07;2.88;;;;;;;11.91;70.19;101334.06;6209788;23;20388;-77
2022/11/02 09:16:40;;;;;;;10.45;1.92;;;;;;;11.99;69.43;101343.25;6209588;23;20362;-77
2022/11/02 09:19:43;;;;;;;9.52;1.90;;;;;;;11.92;69.89;101331.38;6209328;23;20074;-77
2022/11/02 09:22:47;;;;;;;11.68;2.42;;;;;;;11.93;70.07;101347.94;6219687;23;20031;-77
2022/11/02 09:25:51;;;;;;;11.75;2.22;;;;;;;12.13;68.37;101345.28;6239220;23;20476;-77
2022/11/02 09:28:54;;;;;;;13.02;2.15;;;;;;;12.18;68.65;101331.94;6239913;23;20058;-77
2022/11/02 09:31:57;;;;;;;10.23;2.13;;;;;;;12.38;66.65;101354.63;6240207;23;20154;-77
2022/11/02 09:35:05;;;;;;;11.45;1.73;;;;;;;12.43;66.18;101347.41;6238396;23;20027;-77
2022/11/02 09:41:59;;;;;;;11.45;2.03;;;;;;;12.50;65.81;101348.81;6203843;23;20020;-72
2022/11/02 09:45:12;;;;;;;12.32;2.10;;;;;;;12.48;66.63;101350.66;6268065;22;20080;-73
2022/11/02 09:48:19;;;;;;;11.20;2.08;;;;;;;12.49;65.53;101361.06;6269221;22;20068;-72
2022/11/02 09:51:28;;;;;;;13.77;1.73;;;;;;;12.50;65.69;101365.38;6252195;22;20458;-72
2022/11/02 09:54:39;;;;;;;7.93;1.73;;;;;;;12.47;65.66;101375.19;6271200;22;20076;-72
2022/11/02 09:57:46;;;;;;;10.55;2.13;;;;;;;12.48;65.77;101369.03;6270824;22;20073;-74
2022/11/02 10:00:56;;;;;;;8.43;2.20;;;;;;;12.48;65.79;101369.03;6271015;22;20343;-75
2022/11/02 10:04:31;;;;;;;11.85;2.13;;;;;;;12.50;65.63;101390.78;6270868;22;20529;-75
2022/11/02 10:07:42;;;;;;;9.48;2.38;;;;;;;12.58;65.19;101393.91;6271409;22;20050;-75
2022/11/02 10:10:59;;;;;;;16.25;3.25;;;;;;;12.60;66.33;101407.78;6271219;22;20022;-74
2022/11/02 10:14:29;;;;;;;10.50;2.30;;;;;;;12.55;65.82;101399.28;6269080;22;20022;-75
2022/11/02 10:17:37;;;;;;;10.32;2.38;;;;;;;12.54;65.93;101394.97;6271068;22;20043;-74
2022/11/02 10:20:45;;;;;;;8.40;2.50;;;;;;;12.72;64.28;101401.97;6270873;22;20319;-75
2022/11/02 10:23:57;;;;;;;11.15;2.53;;;;;;;12.82;64.64;101389.25;6252258;22;20018;-75
2022/11/02 10:27:10;;;;;;;14.80;2.97;;;;;;;12.90;62.59;101396.78;6270438;22;20027;-75
2022/11/02 10:30:21;;;;;;;11.38;2.03;;;;;;;12.99;62.70;101383.22;6271092;22;20103;-75
2022/11/02 10:33:28;;;;;;;11.45;2.15;;;;;;;13.10;62.50;101393.19;6270836;22;20023;-74
2022/11/02 10:36:54;;;;;;;11.63;2.72;;;;;;;13.03;62.58;101380.34;6269925;22;20516;-75
2022/11/02 10:39:57;;;;;;;13.32;3.60;;;;;;;13.04;64.55;101387.28;6251614;22;20023;-75
2022/11/02 10:43:05;;;;;;;14.57;2.95;;;;;;;13.16;64.43;101380.59;6269132;22;20018;-74
2022/11/02 10:46:50;;;;;;;13.45;3.63;;;;;;;13.40;62.92;101380.31;6269915;22;20297;-74
2022/11/02 10:50:11;;;;;;;14.32;3.78;;;;;;;13.37;63.16;101364.72;6257439;22;20043;-74
2022/11/02 10:53:18;;;;;;;9.07;1.98;;;;;;;13.49;62.82;101359.69;6270941;22;20026;-74
2022/11/02 10:56:28;;;;;;;8.57;2.47;;;;;;;13.36;62.74;101363.03;6270331;22;20027;-74
2022/11/02 10:59:32;;;;;;;7.68;1.60;;;;;;;13.55;62.46;101355.06;6272348;22;20023;-74
2022/11/02 11:02:37;;;;;;;6.35;1.50;;;;;;;13.48;61.30;101349.28;6272736;22;20023;-74
2022/11/02 11:05:50;;;;;;;12.98;2.47;;;;;;;13.62;60.56;101357.28;6272568;22;20030;-74
2022/11/02 11:09:06;;;;;;;8.48;1.90;;;;;;;13.71;60.89;101356.81;6273071;22;20363;-74
2022/11/02 11:12:19;;;;;;;8.65;1.92;;;;;;;13.83;60.45;101349.22;6272383;22;20471;-74
2022/11/02 11:15:30;;;;;;;8.15;1.67;;;;;;;13.72;60.78;101352.41;6253188;22;20404;-75
2022/11/02 11:18:34;;;;;;;11.07;2.20;;;;;;;13.61;60.84;101354.75;6272524;22;20077;-74
2022/11/02 11:21:42;;;;;;;13.05;2.75;;;;;;;13.57;61.22;101366.34;6272269;22;20038;-75
2022/11/02 11:24:46;;;;;;;9.60;2.08;;;;;;;13.68;59.47;101370.09;6270146;22;20026;-74
2022/11/02 11:27:58;;;;;;;11.40;2.10;;;;;;;13.57;59.04;101364.56;6272299;22;20607;-74
2022/11/02 11:31:09;;;;;;;8.38;2.75;;;;;;;13.56;58.97;101362.00;6271741;22;20030;-73
2022/11/02 11:34:31;;;;;;;12.02;2.15;;;;;;;13.62;58.08;101359.91;6269789;22;20511;-74
2022/11/02 11:37:34;;;;;;;11.13;2.42;;;;;;;13.69;57.84;101358.69;6270067;22;20031;-74
2022/11/02 11:40:48;;;;;;;9.52;2.20;;;;;;;13.68;58.60;101370.09;6249748;22;20026;-74
2022/11/02 11:43:52;;;;;;;8.77;1.80;;;;;;;13.87;57.87;101361.25;6251174;22;20048;-74
2022/11/02 11:46:58;;;;;;;13.85;2.40;;;;;;;14.00;57.36;101356.19;6270408;22;20069;-74
2022/11/02 11:50:06;;;;;;;7.63;2.20;;;;;;;14.02;56.72;101349.94;6271250;22;20082;-74
2022/11/02 11:53:20;;;;;;;8.27;1.73;;;;;;;13.91;56.78;101347.00;6270560;22;20050;-74
2022/11/02 11:56:27;;;;;;;14.23;2.25;;;;;;;13.87;57.00;101350.75;6268008;22;20532;-74
2022/11/02 12:03:22;;;;;;;12.80;2.25;;;;;;;14.00;55.50;101350.94;6259090;22;20065;-74
2022/11/02 12:06:29;;;;;;;10.27;1.98;;;;;;;14.02;55.11;101344.69;6271310;22;20023;-74
2022/11/02 12:09:59;;;;;;;8.50;2.08;;;;;;;14.06;54.84;101340.09;6251814;22;20358;-74
2022/11/02 12:13:54;;;;;;;9.65;1.70;;;;;;;14.35;54.58;101335.88;6271110;22;20022;-74
2022/11/02 12:17:07;;;;;;;12.10;2.63;;;;;;;14.34;54.38;101342.09;6234438;22;20030;-73
2022/11/02 12:20:44;;;;;;;7.72;1.75;;;;;;;14.58;53.94;101343.41;6271527;22;20105;-74
2022/11/02 12:24:03;;;;;;;7.22;1.70;;;;;;;14.51;54.20;101331.50;6227565;22;20432;-74
2022/11/02 12:27:26;;;;;;;7.25;1.73;;;;;;;14.42;54.98;101331.97;6268343;22;20027;-74
2022/11/02 12:30:51;;;;;;;8.30;2.28;;;;;;;14.38;54.85;101314.66;6269149;22;20398;-74
2022/11/02 12:34:06;;;;;;;7.75;1.67;;;;;;;14.31;54.65;101319.41;6270392;22;20058;-74
2022/11/02 12:37:32;;;;;;;7.27;1.53;;;;;;;14.35;54.65;101322.72;6269556;22;20030;-74
2022/11/02 12:41:27;;;;;;;11.68;2.05;;;;;;;14.26;53.97;101317.97;6271024;22;20261;-74
2022/11/02 12:45:08;;;;;;;8.23;1.73;;;;;;;14.27;54.48;101309.16;6240215;23;20024;-74
2022/11/02 12:52:30;;;;;;;9.45;1.92;;;;;;;14.25;53.95;101311.88;6212866;23;20023;-74
2022/11/02 12:55:41;;;;;;;11.45;2.75;;;;;;;14.24;53.96;101306.69;6239750;23;20074;-74
2022/11/02 12:58:45;;;;;;;10.65;2.40;;;;;;;14.40;52.62;101299.66;6240030;23;20030;-74
2022/11/02 13:02:02;;;;;;;9.45;2.00;;;;;;;14.58;53.04;101297.78;6240339;23;20027;-74
2022/11/02 13:05:17;;;;;;;9.90;2.13;;;;;;;14.56;53.21;101292.63;6239979;23;20347;-74
2022/11/02 13:08:28;;;;;;;8.18;2.20;;;;;;;14.50;52.10;101292.09;6239602;23;20042;-75
2022/11/02 13:11:40;;;;;;;8.95;1.67;;;;;;;14.51;51.23;101284.13;6238969;23;20022;-74
2022/11/02 13:14:48;;;;;;;8.90;2.00;;;;;;;14.35;51.84;101285.91;6239517;23;20027;-74
2022/11/02 13:18:03;;;;;;;7.05;1.52;;;;;;;14.21;51.10;101280.56;6238021;23;20356;-74
2022/11/02 13:21:17;;;;;;;7.13;1.33;;;;;;;14.15;51.91;101279.97;6238504;23;20027;-74
2022/11/02 13:24:31;;;;;;;9.55;2.08;;;;;;;14.06;51.12;101275.19;6240293;23;20122;-74
2022/11/02 13:27:41;;;;;;;11.23;2.22;;;;;;;14.02;51.35;101271.06;6239538;23;20399;-74
2022/11/02 13:30:46;;;;;;;8.77;1.63;;;;;;;14.08;51.45;101261.97;6240098;23;20470;-74
2022/11/02 13:33:53;;;;;;;8.95;1.95;;;;;;;14.04;51.38;101260.44;6240351;23;20077;-74
2022/11/02 13:37:03;;;;;;;5.97;1.67;;;;;;;14.15;50.68;101277.34;6241686;23;20093;-74
2022/11/02 13:40:16;;;;;;;7.25;1.95;;;;;;;14.33;50.81;101275.47;6241665;23;20367;-74
2022/11/02 13:43:39;;;;;;;;;;;;;;;14.33;50.99;101272.84;6223446;23;20343;-74
2022/11/02 13:47:16;;;;;;;9.38;1.67;;;;;;;14.28;51.07;101268.75;6239281;23;19937;-74
2022/11/02 13:50:23;;;;;;;7.40;1.42;;;;;;;14.22;51.59;101277.00;6239503;23;20027;-74
2022/11/02 13:53:33;;;;;;;8.57;1.33;;;;;;;14.28;52.38;101279.28;6220657;23;20595;-74
2022/11/02 13:56:37;;;;;;;7.80;1.80;;;;;;;14.35;52.63;101288.53;6238892;23;20086;-74
2022/11/02 13:59:44;;;;;;;12.68;2.13;;;;;;;14.33;52.00;101290.41;6239236;23;20023;-74
2022/11/02 14:02:53;;;;;;;7.43;1.58;;;;;;;14.26;51.90;101287.25;6239379;23;20022;-74
2022/11/02 14:06:00;;;;;;;7.13;1.58;;;;;;;14.13;51.16;101279.19;6239021;23;20489;-74
2022/11/02 14:09:08;;;;;;;6.07;1.45;;;;;;;14.11;52.10;101285.47;6239556;23;20027;-74
2022/11/02 14:12:20;;;;;;;10.77;1.63;;;;;;;14.08;51.90;101280.41;6220609;23;20019;-74
2022/11/02 14:15:24;;;;;;;9.63;2.22;;;;;;;14.03;52.02;101272.75;6237289;23;20074;-74
2022/11/02 14:18:29;;;;;;;7.70;2.53;;;;;;;14.06;52.77;101282.25;6239109;23;20055;-74
2022/11/02 14:21:42;;;;;;;7.40;2.70;;;;;;;14.05;52.62;101268.25;6239693;23;20074;-74
2022/11/02 14:24:48;;;;;;;10.95;3.17;;;;;;;14.02;52.05;101270.22;6239712;23;20035;-74
2022/11/02 14:27:53;;;;;;;7.40;2.20;;;;;;;14.01;52.45;101272.00;6240357;23;20026;-74
2022/11/02 14:31:06;;;;;;;10.93;4.00;;;;;;;13.94;52.85;101275.88;6222490;23;20488;-74
2022/11/02 14:34:25;;;;;;;17.13;6.05;;;;;;;13.94;53.14;101279.38;6240476;23;20039;-74
2022/11/02 14:37:38;;;;;;;14.05;5.05;;;;;;;13.99;52.31;101278.25;6240358;23;20050;-74
2022/11/02 14:40:54;;;;;;;;;;;;;;;13.91;51.44;101278.66;6240817;23;20030;-74
2022/11/02 14:44:21;;;;;;;9.32;3.25;;;;;;;13.91;51.34;101278.66;6239895;23;19934;-74
2022/11/02 14:47:32;;;;;;;9.95;2.78;;;;;;;13.86;51.78;101267.56;6242133;23;20459;-74
2022/11/02 14:50:37;;;;;;;8.85;2.88;;;;;;;13.79;50.99;101284.59;6242622;23;20031;-74
2022/11/02 14:53:42;;;;;;;9.73;3.33;;;;;;;13.81;51.11;101278.31;6241861;23;20019;-74
2022/11/02 14:57:16;;;;;;;12.98;3.03;;;;;;;13.81;51.89;101278.31;6239919;23;20396;-74
2022/11/02 15:00:24;;;;;;;8.75;3.35;;;;;;;13.82;51.92;101271.31;6240460;23;20767;-74
2022/11/02 15:03:33;;;;;;;9.20;2.28;;;;;;;13.64;54.82;101273.97;6240696;23;20055;-74
2022/11/02 15:06:37;;;;;;;7.13;1.55;;;;;;;13.70;54.04;101275.41;6238124;23;20023;-74
2022/11/02 15:10:04;;;;;;;10.63;2.53;;;;;;;13.64;53.96;101273.97;6241989;23;20023;-74
2022/11/02 15:13:17;;;;;;;8.70;2.08;;;;;;;13.48;57.75;101278.34;6239936;23;20031;-74
2022/11/02 15:16:36;;;;;;;9.68;2.10;;;;;;;13.41;58.48;101271.72;6240734;23;20070;-74
2022/11/02 15:19:45;;;;;;;7.95;1.50;;;;;;;13.20;62.29;101278.88;6239756;23;20027;-74
2022/11/02 15:23:24;;;;;;;11.32;3.38;;;;;;;13.09;63.55;101274.19;6239682;23;20064;-74
2022/11/02 15:26:51;;;;;;;10.45;1.70;;;;;;;13.02;64.26;101280.69;6239104;23;20023;-74
2022/11/02 15:30:16;;;;;;;8.13;1.70;;;;;;;12.81;65.21;101282.59;6239125;23;20058;-74
2022/11/02 15:33:34;;;;;;;8.43;1.52;;;;;;;12.66;66.96;101286.81;6241298;23;20019;-74
2022/11/02 15:36:43;;;;;;;11.48;3.00;;;;;;;12.62;67.74;101279.16;6240273;23;20031;-74
2022/11/02 15:39:56;;;;;;;10.60;2.80;;;;;;;12.53;67.23;101269.97;6241070;23;20023;-74